sensor_id;sensor_type;location;lat;lon;timestamp;P1;durP1;ratioP1;P2;durP2;ratioP2
77938;SDS011;67136;47.546;21.630;2023-05-06T00:02:00;6.90;;;3.47;;
77938;SDS011;67136;47.546;21.630;2023-05-06T00:05:05;9.27;;;3.53;;
77938;SDS011;67136;47.546;21.630;2023-05-06T00:08:13;7.33;;;3.20;;
77938;SDS011;67136;47.546;21.630;2023-05-06T00:11:18;6.00;;;3.20;;
77938;SDS011;67136;47.546;21.630;2023-05-06T00:14:25;5.15;;;3.33;;
77938;SDS011;67136;47.546;21.630;2023-05-06T00:17:35;5.45;;;3.85;;
77938;SDS011;67136;47.546;21.630;2023-05-06T00:20:43;7.28;;;3.70;;
77938;SDS011;67136;47.546;21.630;2023-05-06T00:23:57;6.47;;;3.40;;
77938;SDS011;67136;47.546;21.630;2023-05-06T00:27:08;8.60;;;3.40;;
77938;SDS011;67136;47.546;21.630;2023-05-06T00:30:15;11.68;;;4.20;;
77938;SDS011;67136;47.546;21.630;2023-05-06T00:33:23;7.90;;;3.70;;
77938;SDS011;67136;47.546;21.630;2023-05-06T00:36:33;7.62;;;4.15;;
77938;SDS011;67136;47.546;21.630;2023-05-06T00:39:39;6.57;;;3.80;;
77938;SDS011;67136;47.546;21.630;2023-05-06T00:42:49;5.40;;;3.87;;
77938;SDS011;67136;47.546;21.630;2023-05-06T00:46:04;6.30;;;4.15;;
77938;SDS011;67136;47.546;21.630;2023-05-06T00:49:15;8.00;;;3.85;;
77938;SDS011;67136;47.546;21.630;2023-05-06T00:52:24;8.68;;;3.92;;
77938;SDS011;67136;47.546;21.630;2023-05-06T00:55:33;7.30;;;3.80;;
77938;SDS011;67136;47.546;21.630;2023-05-06T00:58:42;7.37;;;3.67;;
77938;SDS011;67136;47.546;21.630;2023-05-06T01:01:48;9.05;;;3.90;;
77938;SDS011;67136;47.546;21.630;2023-05-06T01:04:58;8.77;;;3.80;;
77938;SDS011;67136;47.546;21.630;2023-05-06T01:11:23;11.73;;;3.63;;
77938;SDS011;67136;47.546;21.630;2023-05-06T01:15:10;5.13;;;3.67;;
77938;SDS011;67136;47.546;21.630;2023-05-06T01:18:52;6.68;;;3.83;;
77938;SDS011;67136;47.546;21.630;2023-05-06T01:22:01;6.05;;;3.58;;
77938;SDS011;67136;47.546;21.630;2023-05-06T01:25:21;5.85;;;4.03;;
77938;SDS011;67136;47.546;21.630;2023-05-06T01:28:54;9.97;;;4.00;;
77938;SDS011;67136;47.546;21.630;2023-05-06T01:32:13;6.83;;;3.93;;
77938;SDS011;67136;47.546;21.630;2023-05-06T01:39:31;7.25;;;4.20;;
77938;SDS011;67136;47.546;21.630;2023-05-06T01:42:48;9.60;;;3.78;;
77938;SDS011;67136;47.546;21.630;2023-05-06T01:45:53;8.97;;;4.53;;
77938;SDS011;67136;47.546;21.630;2023-05-06T01:49:07;7.40;;;4.33;;
77938;SDS011;67136;47.546;21.630;2023-05-06T01:52:19;7.75;;;4.47;;
77938;SDS011;67136;47.546;21.630;2023-05-06T01:55:34;8.65;;;4.28;;
77938;SDS011;67136;47.546;21.630;2023-05-06T01:58:49;7.75;;;4.47;;
77938;SDS011;67136;47.546;21.630;2023-05-06T02:01:57;7.30;;;4.63;;
77938;SDS011;67136;47.546;21.630;2023-05-06T02:05:04;6.53;;;3.93;;
77938;SDS011;67136;47.546;21.630;2023-05-06T02:08:11;6.50;;;4.28;;
77938;SDS011;67136;47.546;21.630;2023-05-06T02:11:15;7.32;;;4.30;;
77938;SDS011;67136;47.546;21.630;2023-05-06T02:14:21;12.10;;;4.80;;
77938;SDS011;67136;47.546;21.630;2023-05-06T02:17:36;10.13;;;4.70;;
77938;SDS011;67136;47.546;21.630;2023-05-06T02:24:13;8.50;;;4.50;;
77938;SDS011;67136;47.546;21.630;2023-05-06T02:27:22;8.88;;;4.68;;
77938;SDS011;67136;47.546;21.630;2023-05-06T02:30:28;8.43;;;4.45;;
77938;SDS011;67136;47.546;21.630;2023-05-06T02:33:46;7.07;;;4.60;;
77938;SDS011;67136;47.546;21.630;2023-05-06T02:36:54;8.33;;;4.40;;
77938;SDS011;67136;47.546;21.630;2023-05-06T02:40:06;9.57;;;4.55;;
77938;SDS011;67136;47.546;21.630;2023-05-06T02:43:18;11.45;;;4.45;;
77938;SDS011;67136;47.546;21.630;2023-05-06T02:46:29;7.82;;;4.20;;
77938;SDS011;67136;47.546;21.630;2023-05-06T02:49:34;6.50;;;4.30;;
77938;SDS011;67136;47.546;21.630;2023-05-06T02:52:38;5.30;;;4.20;;
77938;SDS011;67136;47.546;21.630;2023-05-06T02:55:52;8.82;;;4.37;;
77938;SDS011;67136;47.546;21.630;2023-05-06T02:59:02;9.73;;;4.72;;
77938;SDS011;67136;47.546;21.630;2023-05-06T03:02:15;9.43;;;4.10;;
77938;SDS011;67136;47.546;21.630;2023-05-06T03:05:18;7.43;;;4.17;;
77938;SDS011;67136;47.546;21.630;2023-05-06T03:08:33;7.40;;;4.23;;
77938;SDS011;67136;47.546;21.630;2023-05-06T03:11:49;6.40;;;4.05;;
77938;SDS011;67136;47.546;21.630;2023-05-06T03:15:10;9.50;;;4.00;;
77938;SDS011;67136;47.546;21.630;2023-05-06T03:18:16;7.20;;;4.15;;
77938;SDS011;67136;47.546;21.630;2023-05-06T03:21:19;8.70;;;4.30;;
77938;SDS011;67136;47.546;21.630;2023-05-06T03:24:25;5.40;;;3.80;;
77938;SDS011;67136;47.546;21.630;2023-05-06T03:27:36;7.65;;;4.65;;
77938;SDS011;67136;47.546;21.630;2023-05-06T03:30:40;8.80;;;4.30;;
77938;SDS011;67136;47.546;21.630;2023-05-06T03:33:45;7.90;;;4.20;;
77938;SDS011;67136;47.546;21.630;2023-05-06T03:37:06;7.87;;;4.30;;
77938;SDS011;67136;47.546;21.630;2023-05-06T03:40:32;6.83;;;3.83;;
77938;SDS011;67136;47.546;21.630;2023-05-06T03:43:41;6.60;;;4.20;;
77938;SDS011;67136;47.546;21.630;2023-05-06T03:47:05;7.25;;;3.97;;
77938;SDS011;67136;47.546;21.630;2023-05-06T03:50:20;6.47;;;4.00;;
77938;SDS011;67136;47.546;21.630;2023-05-06T03:53:31;6.73;;;3.90;;
77938;SDS011;67136;47.546;21.630;2023-05-06T03:56:41;9.77;;;4.10;;
77938;SDS011;67136;47.546;21.630;2023-05-06T03:59:55;6.53;;;4.05;;
77938;SDS011;67136;47.546;21.630;2023-05-06T04:03:04;8.25;;;4.18;;
77938;SDS011;67136;47.546;21.630;2023-05-06T04:06:14;9.32;;;4.20;;
77938;SDS011;67136;47.546;21.630;2023-05-06T04:09:22;7.70;;;4.17;;
77938;SDS011;67136;47.546;21.630;2023-05-06T04:12:30;8.60;;;4.10;;
77938;SDS011;67136;47.546;21.630;2023-05-06T04:15:41;6.65;;;4.12;;
77938;SDS011;67136;47.546;21.630;2023-05-06T04:18:51;7.47;;;4.30;;
77938;SDS011;67136;47.546;21.630;2023-05-06T04:22:02;7.85;;;4.68;;
77938;SDS011;67136;47.546;21.630;2023-05-06T04:25:09;7.43;;;4.17;;
77938;SDS011;67136;47.546;21.630;2023-05-06T04:28:14;8.13;;;4.60;;
77938;SDS011;67136;47.546;21.630;2023-05-06T04:31:27;6.65;;;3.80;;
77938;SDS011;67136;47.546;21.630;2023-05-06T04:34:41;6.70;;;4.28;;
77938;SDS011;67136;47.546;21.630;2023-05-06T04:37:58;10.45;;;4.72;;
77938;SDS011;67136;47.546;21.630;2023-05-06T04:41:12;5.87;;;4.30;;
77938;SDS011;67136;47.546;21.630;2023-05-06T04:44:21;7.00;;;4.03;;
77938;SDS011;67136;47.546;21.630;2023-05-06T04:47:45;7.18;;;4.07;;
77938;SDS011;67136;47.546;21.630;2023-05-06T04:51:06;9.23;;;4.50;;
77938;SDS011;67136;47.546;21.630;2023-05-06T04:54:19;10.15;;;4.47;;
77938;SDS011;67136;47.546;21.630;2023-05-06T04:57:25;15.33;;;4.90;;
77938;SDS011;67136;47.546;21.630;2023-05-06T05:00:36;7.20;;;4.60;;
77938;SDS011;67136;47.546;21.630;2023-05-06T05:03:49;7.00;;;4.43;;
77938;SDS011;67136;47.546;21.630;2023-05-06T05:07:03;6.90;;;4.20;;
77938;SDS011;67136;47.546;21.630;2023-05-06T05:10:15;8.15;;;4.37;;
77938;SDS011;67136;47.546;21.630;2023-05-06T05:13:35;8.73;;;4.50;;
77938;SDS011;67136;47.546;21.630;2023-05-06T05:16:51;10.40;;;4.80;;
77938;SDS011;67136;47.546;21.630;2023-05-06T05:19:58;11.98;;;4.93;;
77938;SDS011;67136;47.546;21.630;2023-05-06T05:23:13;9.00;;;5.03;;
77938;SDS011;67136;47.546;21.630;2023-05-06T05:26:26;10.48;;;4.60;;
77938;SDS011;67136;47.546;21.630;2023-05-06T05:29:33;8.37;;;4.97;;
77938;SDS011;67136;47.546;21.630;2023-05-06T05:32:46;9.93;;;4.70;;
77938;SDS011;67136;47.546;21.630;2023-05-06T05:35:59;11.15;;;5.35;;
77938;SDS011;67136;47.546;21.630;2023-05-06T05:39:19;11.50;;;5.50;;
77938;SDS011;67136;47.546;21.630;2023-05-06T05:42:34;11.40;;;4.97;;
77938;SDS011;67136;47.546;21.630;2023-05-06T05:45:43;8.07;;;4.97;;
77938;SDS011;67136;47.546;21.630;2023-05-06T05:48:53;8.80;;;5.13;;
77938;SDS011;67136;47.546;21.630;2023-05-06T05:52:03;11.55;;;6.32;;
77938;SDS011;67136;47.546;21.630;2023-05-06T05:55:12;10.02;;;5.80;;
77938;SDS011;67136;47.546;21.630;2023-05-06T05:58:21;11.52;;;5.72;;
77938;SDS011;67136;47.546;21.630;2023-05-06T06:01:34;16.17;;;6.53;;
77938;SDS011;67136;47.546;21.630;2023-05-06T06:04:58;12.23;;;6.10;;
77938;SDS011;67136;47.546;21.630;2023-05-06T06:08:06;10.65;;;6.30;;
77938;SDS011;67136;47.546;21.630;2023-05-06T06:11:21;14.73;;;6.57;;
77938;SDS011;67136;47.546;21.630;2023-05-06T06:14:27;9.38;;;5.70;;
77938;SDS011;67136;47.546;21.630;2023-05-06T06:17:38;12.27;;;6.00;;
77938;SDS011;67136;47.546;21.630;2023-05-06T06:20:44;15.47;;;6.00;;
77938;SDS011;67136;47.546;21.630;2023-05-06T06:23:55;9.25;;;5.87;;
77938;SDS011;67136;47.546;21.630;2023-05-06T06:26:57;7.95;;;5.50;;
77938;SDS011;67136;47.546;21.630;2023-05-06T06:30:19;8.80;;;5.65;;
77938;SDS011;67136;47.546;21.630;2023-05-06T06:33:24;11.20;;;5.25;;
77938;SDS011;67136;47.546;21.630;2023-05-06T06:36:31;12.97;;;5.77;;
77938;SDS011;67136;47.546;21.630;2023-05-06T06:39:36;8.15;;;5.65;;
77938;SDS011;67136;47.546;21.630;2023-05-06T06:42:46;10.38;;;5.30;;
77938;SDS011;67136;47.546;21.630;2023-05-06T06:46:06;8.88;;;5.37;;
77938;SDS011;67136;47.546;21.630;2023-05-06T06:49:20;6.55;;;4.72;;
77938;SDS011;67136;47.546;21.630;2023-05-06T06:52:29;11.93;;;5.20;;
77938;SDS011;67136;47.546;21.630;2023-05-06T06:55:41;7.85;;;4.70;;
77938;SDS011;67136;47.546;21.630;2023-05-06T06:58:44;10.20;;;5.05;;
77938;SDS011;67136;47.546;21.630;2023-05-06T07:01:54;10.57;;;4.50;;
77938;SDS011;67136;47.546;21.630;2023-05-06T07:05:07;10.13;;;4.78;;
77938;SDS011;67136;47.546;21.630;2023-05-06T07:08:18;10.93;;;4.27;;
77938;SDS011;67136;47.546;21.630;2023-05-06T07:11:25;7.53;;;4.70;;
77938;SDS011;67136;47.546;21.630;2023-05-06T07:14:44;8.95;;;5.20;;
77938;SDS011;67136;47.546;21.630;2023-05-06T07:17:50;6.72;;;4.53;;
77938;SDS011;67136;47.546;21.630;2023-05-06T07:20:53;8.50;;;4.93;;
77938;SDS011;67136;47.546;21.630;2023-05-06T07:24:00;5.97;;;4.17;;
77938;SDS011;67136;47.546;21.630;2023-05-06T07:27:10;10.48;;;4.43;;
77938;SDS011;67136;47.546;21.630;2023-05-06T07:30:21;9.93;;;4.85;;
77938;SDS011;67136;47.546;21.630;2023-05-06T07:33:31;6.20;;;4.00;;
77938;SDS011;67136;47.546;21.630;2023-05-06T07:36:42;6.53;;;4.20;;
77938;SDS011;67136;47.546;21.630;2023-05-06T07:43:24;8.70;;;4.15;;
77938;SDS011;67136;47.546;21.630;2023-05-06T07:46:33;5.22;;;4.30;;
77938;SDS011;67136;47.546;21.630;2023-05-06T07:49:36;5.72;;;4.00;;
77938;SDS011;67136;47.546;21.630;2023-05-06T07:52:46;8.15;;;4.15;;
77938;SDS011;67136;47.546;21.630;2023-05-06T07:56:06;5.20;;;4.03;;
77938;SDS011;67136;47.546;21.630;2023-05-06T07:59:18;11.77;;;4.53;;
77938;SDS011;67136;47.546;21.630;2023-05-06T08:02:38;12.35;;;4.45;;
77938;SDS011;67136;47.546;21.630;2023-05-06T08:05:51;8.15;;;4.35;;
77938;SDS011;67136;47.546;21.630;2023-05-06T08:09:02;7.97;;;3.80;;
77938;SDS011;67136;47.546;21.630;2023-05-06T08:12:24;8.30;;;3.77;;
77938;SDS011;67136;47.546;21.630;2023-05-06T08:15:29;5.72;;;4.18;;
77938;SDS011;67136;47.546;21.630;2023-05-06T08:18:40;7.90;;;3.92;;
77938;SDS011;67136;47.546;21.630;2023-05-06T08:21:52;4.60;;;3.45;;
77938;SDS011;67136;47.546;21.630;2023-05-06T08:25:00;9.05;;;3.87;;
77938;SDS011;67136;47.546;21.630;2023-05-06T08:28:09;5.13;;;3.87;;
77938;SDS011;67136;47.546;21.630;2023-05-06T08:31:16;7.20;;;4.40;;
77938;SDS011;67136;47.546;21.630;2023-05-06T08:34:20;6.95;;;3.90;;
77938;SDS011;67136;47.546;21.630;2023-05-06T08:37:47;5.87;;;3.80;;
77938;SDS011;67136;47.546;21.630;2023-05-06T08:40:53;6.57;;;4.07;;
77938;SDS011;67136;47.546;21.630;2023-05-06T08:44:02;6.37;;;3.60;;
77938;SDS011;67136;47.546;21.630;2023-05-06T08:47:10;5.75;;;3.75;;
77938;SDS011;67136;47.546;21.630;2023-05-06T08:50:21;7.45;;;3.87;;
77938;SDS011;67136;47.546;21.630;2023-05-06T08:53:24;6.32;;;3.70;;
77938;SDS011;67136;47.546;21.630;2023-05-06T08:56:31;7.30;;;3.25;;
77938;SDS011;67136;47.546;21.630;2023-05-06T08:59:49;5.53;;;2.80;;
77938;SDS011;67136;47.546;21.630;2023-05-06T09:02:55;3.65;;;3.28;;
77938;SDS011;67136;47.546;21.630;2023-05-06T09:06:10;7.07;;;3.10;;
77938;SDS011;67136;47.546;21.630;2023-05-06T09:09:27;3.92;;;2.58;;
77938;SDS011;67136;47.546;21.630;2023-05-06T09:12:34;5.35;;;2.40;;
77938;SDS011;67136;47.546;21.630;2023-05-06T09:15:48;4.03;;;2.50;;
77938;SDS011;67136;47.546;21.630;2023-05-06T09:18:56;5.45;;;2.60;;
77938;SDS011;67136;47.546;21.630;2023-05-06T09:22:24;2.92;;;2.28;;
77938;SDS011;67136;47.546;21.630;2023-05-06T09:25:28;3.42;;;2.67;;
77938;SDS011;67136;47.546;21.630;2023-05-06T09:28:32;5.25;;;2.45;;
77938;SDS011;67136;47.546;21.630;2023-05-06T09:31:46;5.80;;;1.97;;
77938;SDS011;67136;47.546;21.630;2023-05-06T09:34:49;8.25;;;2.50;;
77938;SDS011;67136;47.546;21.630;2023-05-06T09:38:03;4.45;;;2.05;;
77938;SDS011;67136;47.546;21.630;2023-05-06T09:41:13;7.75;;;2.30;;
77938;SDS011;67136;47.546;21.630;2023-05-06T09:44:16;2.87;;;2.03;;
77938;SDS011;67136;47.546;21.630;2023-05-06T09:47:31;2.93;;;2.07;;
77938;SDS011;67136;47.546;21.630;2023-05-06T09:50:39;2.58;;;2.22;;
77938;SDS011;67136;47.546;21.630;2023-05-06T09:53:50;5.78;;;2.55;;
77938;SDS011;67136;47.546;21.630;2023-05-06T09:56:59;3.72;;;2.42;;
77938;SDS011;67136;47.546;21.630;2023-05-06T10:00:08;5.28;;;1.90;;
77938;SDS011;67136;47.546;21.630;2023-05-06T10:03:18;4.47;;;2.20;;
77938;SDS011;67136;47.546;21.630;2023-05-06T10:06:25;2.92;;;2.20;;
77938;SDS011;67136;47.546;21.630;2023-05-06T10:09:37;4.80;;;2.90;;
77938;SDS011;67136;47.546;21.630;2023-05-06T10:12:47;6.12;;;2.42;;
77938;SDS011;67136;47.546;21.630;2023-05-06T10:16:04;2.83;;;2.10;;
77938;SDS011;67136;47.546;21.630;2023-05-06T10:19:11;3.93;;;2.50;;
77938;SDS011;67136;47.546;21.630;2023-05-06T10:26:12;4.80;;;2.75;;
77938;SDS011;67136;47.546;21.630;2023-05-06T10:29:31;2.60;;;2.30;;
77938;SDS011;67136;47.546;21.630;2023-05-06T10:32:45;3.60;;;2.22;;
77938;SDS011;67136;47.546;21.630;2023-05-06T10:39:26;4.18;;;2.58;;
77938;SDS011;67136;47.546;21.630;2023-05-06T10:42:33;2.95;;;2.60;;
77938;SDS011;67136;47.546;21.630;2023-05-06T10:46:00;4.35;;;2.20;;
77938;SDS011;67136;47.546;21.630;2023-05-06T10:49:16;10.45;;;2.35;;
77938;SDS011;67136;47.546;21.630;2023-05-06T10:52:25;6.27;;;2.30;;
77938;SDS011;67136;47.546;21.630;2023-05-06T10:56:05;6.28;;;2.20;;
77938;SDS011;67136;47.546;21.630;2023-05-06T10:59:13;4.15;;;2.40;;
77938;SDS011;67136;47.546;21.630;2023-05-06T11:02:26;3.97;;;2.25;;
77938;SDS011;67136;47.546;21.630;2023-05-06T11:05:50;5.75;;;2.15;;
77938;SDS011;67136;47.546;21.630;2023-05-06T11:08:56;6.13;;;2.40;;
77938;SDS011;67136;47.546;21.630;2023-05-06T11:12:13;3.28;;;2.22;;
77938;SDS011;67136;47.546;21.630;2023-05-06T11:15:36;4.70;;;2.65;;
77938;SDS011;67136;47.546;21.630;2023-05-06T11:18:39;4.28;;;2.00;;
77938;SDS011;67136;47.546;21.630;2023-05-06T11:21:45;4.32;;;2.40;;
77938;SDS011;67136;47.546;21.630;2023-05-06T11:24:53;4.73;;;2.30;;
77938;SDS011;67136;47.546;21.630;2023-05-06T11:28:12;3.87;;;2.40;;
77938;SDS011;67136;47.546;21.630;2023-05-06T11:31:25;3.55;;;2.35;;
77938;SDS011;67136;47.546;21.630;2023-05-06T11:34:36;5.50;;;2.42;;
77938;SDS011;67136;47.546;21.630;2023-05-06T11:37:46;5.12;;;2.62;;
77938;SDS011;67136;47.546;21.630;2023-05-06T11:40:51;5.17;;;2.20;;
77938;SDS011;67136;47.546;21.630;2023-05-06T11:44:03;5.32;;;2.60;;
77938;SDS011;67136;47.546;21.630;2023-05-06T11:47:19;4.62;;;2.40;;
77938;SDS011;67136;47.546;21.630;2023-05-06T11:50:32;3.40;;;2.37;;
77938;SDS011;67136;47.546;21.630;2023-05-06T11:53:39;5.12;;;2.15;;
77938;SDS011;67136;47.546;21.630;2023-05-06T11:56:52;3.63;;;1.93;;
77938;SDS011;67136;47.546;21.630;2023-05-06T12:00:02;3.72;;;2.08;;
77938;SDS011;67136;47.546;21.630;2023-05-06T12:03:25;3.95;;;2.08;;
77938;SDS011;67136;47.546;21.630;2023-05-06T12:06:35;3.03;;;2.50;;
77938;SDS011;67136;47.546;21.630;2023-05-06T12:09:47;5.40;;;2.40;;
77938;SDS011;67136;47.546;21.630;2023-05-06T12:12:52;2.70;;;2.30;;
77938;SDS011;67136;47.546;21.630;2023-05-06T12:16:06;5.53;;;2.10;;
77938;SDS011;67136;47.546;21.630;2023-05-06T12:19:14;4.15;;;2.28;;
77938;SDS011;67136;47.546;21.630;2023-05-06T12:22:20;2.87;;;2.40;;
77938;SDS011;67136;47.546;21.630;2023-05-06T12:25:28;2.40;;;2.03;;
77938;SDS011;67136;47.546;21.630;2023-05-06T12:28:39;7.47;;;2.60;;
77938;SDS011;67136;47.546;21.630;2023-05-06T12:31:45;3.30;;;1.92;;
77938;SDS011;67136;47.546;21.630;2023-05-06T12:34:56;3.08;;;2.10;;
77938;SDS011;67136;47.546;21.630;2023-05-06T12:41:13;3.70;;;2.10;;
77938;SDS011;67136;47.546;21.630;2023-05-06T12:51:25;4.05;;;1.90;;
77938;SDS011;67136;47.546;21.630;2023-05-06T12:54:31;3.75;;;1.85;;
77938;SDS011;67136;47.546;21.630;2023-05-06T12:57:42;6.50;;;2.20;;
77938;SDS011;67136;47.546;21.630;2023-05-06T13:00:53;6.20;;;2.23;;
77938;SDS011;67136;47.546;21.630;2023-05-06T13:03:57;3.10;;;2.10;;
77938;SDS011;67136;47.546;21.630;2023-05-06T13:07:07;3.00;;;1.67;;
77938;SDS011;67136;47.546;21.630;2023-05-06T13:10:20;4.60;;;2.08;;
77938;SDS011;67136;47.546;21.630;2023-05-06T13:13:31;6.80;;;2.55;;
77938;SDS011;67136;47.546;21.630;2023-05-06T13:16:42;3.27;;;2.20;;
77938;SDS011;67136;47.546;21.630;2023-05-06T13:19:51;5.78;;;1.80;;
77938;SDS011;67136;47.546;21.630;2023-05-06T13:23:03;2.40;;;2.20;;
77938;SDS011;67136;47.546;21.630;2023-05-06T13:26:17;4.97;;;2.30;;
77938;SDS011;67136;47.546;21.630;2023-05-06T13:29:37;3.28;;;2.20;;
77938;SDS011;67136;47.546;21.630;2023-05-06T13:32:43;3.73;;;1.80;;
77938;SDS011;67136;47.546;21.630;2023-05-06T13:35:49;5.53;;;2.22;;
77938;SDS011;67136;47.546;21.630;2023-05-06T13:38:53;5.43;;;2.15;;
77938;SDS011;67136;47.546;21.630;2023-05-06T13:42:14;8.55;;;2.10;;
77938;SDS011;67136;47.546;21.630;2023-05-06T13:45:28;6.00;;;3.12;;
77938;SDS011;67136;47.546;21.630;2023-05-06T13:48:37;3.37;;;2.07;;
77938;SDS011;67136;47.546;21.630;2023-05-06T13:51:45;5.85;;;2.28;;
77938;SDS011;67136;47.546;21.630;2023-05-06T13:54:48;2.42;;;2.05;;
77938;SDS011;67136;47.546;21.630;2023-05-06T13:58:02;3.95;;;2.10;;
77938;SDS011;67136;47.546;21.630;2023-05-06T14:01:11;3.20;;;2.00;;
77938;SDS011;67136;47.546;21.630;2023-05-06T14:04:22;4.77;;;2.20;;
77938;SDS011;67136;47.546;21.630;2023-05-06T14:07:36;9.63;;;2.37;;
77938;SDS011;67136;47.546;21.630;2023-05-06T14:10:43;2.65;;;2.20;;
77938;SDS011;67136;47.546;21.630;2023-05-06T14:13:49;6.97;;;1.92;;
77938;SDS011;67136;47.546;21.630;2023-05-06T14:16:56;3.90;;;2.45;;
77938;SDS011;67136;47.546;21.630;2023-05-06T14:20:01;2.77;;;2.37;;
77938;SDS011;67136;47.546;21.630;2023-05-06T14:23:37;4.82;;;2.37;;
77938;SDS011;67136;47.546;21.630;2023-05-06T14:26:55;4.43;;;2.20;;
77938;SDS011;67136;47.546;21.630;2023-05-06T14:30:00;5.47;;;2.45;;
77938;SDS011;67136;47.546;21.630;2023-05-06T14:33:10;2.60;;;2.40;;
77938;SDS011;67136;47.546;21.630;2023-05-06T14:36:22;2.70;;;2.30;;
77938;SDS011;67136;47.546;21.630;2023-05-06T14:39:27;3.70;;;2.30;;
77938;SDS011;67136;47.546;21.630;2023-05-06T14:42:44;3.22;;;2.20;;
77938;SDS011;67136;47.546;21.630;2023-05-06T14:46:07;4.07;;;1.92;;
77938;SDS011;67136;47.546;21.630;2023-05-06T14:49:19;3.60;;;1.90;;
77938;SDS011;67136;47.546;21.630;2023-05-06T14:52:26;4.10;;;2.30;;
77938;SDS011;67136;47.546;21.630;2023-05-06T14:55:40;3.03;;;2.15;;
77938;SDS011;67136;47.546;21.630;2023-05-06T14:58:46;4.55;;;2.20;;
77938;SDS011;67136;47.546;21.630;2023-05-06T15:01:55;4.75;;;2.10;;
77938;SDS011;67136;47.546;21.630;2023-05-06T15:05:07;3.37;;;2.00;;
77938;SDS011;67136;47.546;21.630;2023-05-06T15:08:16;4.60;;;2.17;;
77938;SDS011;67136;47.546;21.630;2023-05-06T15:11:20;4.65;;;2.35;;
77938;SDS011;67136;47.546;21.630;2023-05-06T15:14:25;2.58;;;2.12;;
77938;SDS011;67136;47.546;21.630;2023-05-06T15:17:32;6.15;;;2.17;;
77938;SDS011;67136;47.546;21.630;2023-05-06T15:20:42;4.93;;;2.35;;
77938;SDS011;67136;47.546;21.630;2023-05-06T15:23:52;5.23;;;2.30;;
77938;SDS011;67136;47.546;21.630;2023-05-06T15:27:06;4.72;;;2.62;;
77938;SDS011;67136;47.546;21.630;2023-05-06T15:30:28;5.25;;;2.33;;
77938;SDS011;67136;47.546;21.630;2023-05-06T15:33:33;3.95;;;2.30;;
77938;SDS011;67136;47.546;21.630;2023-05-06T15:36:40;2.67;;;2.17;;
77938;SDS011;67136;47.546;21.630;2023-05-06T15:39:50;5.10;;;2.20;;
77938;SDS011;67136;47.546;21.630;2023-05-06T15:42:59;4.85;;;2.17;;
77938;SDS011;67136;47.546;21.630;2023-05-06T15:46:11;3.72;;;2.30;;
77938;SDS011;67136;47.546;21.630;2023-05-06T15:49:20;4.30;;;2.35;;
77938;SDS011;67136;47.546;21.630;2023-05-06T15:52:43;4.28;;;2.37;;
77938;SDS011;67136;47.546;21.630;2023-05-06T15:55:54;8.73;;;3.30;;
77938;SDS011;67136;47.546;21.630;2023-05-06T15:59:25;2.53;;;1.90;;
77938;SDS011;67136;47.546;21.630;2023-05-06T16:02:30;4.20;;;2.40;;
77938;SDS011;67136;47.546;21.630;2023-05-06T16:05:36;2.87;;;2.05;;
77938;SDS011;67136;47.546;21.630;2023-05-06T16:08:46;6.97;;;2.00;;
77938;SDS011;67136;47.546;21.630;2023-05-06T16:11:51;4.40;;;2.00;;
77938;SDS011;67136;47.546;21.630;2023-05-06T16:15:00;5.68;;;2.50;;
77938;SDS011;67136;47.546;21.630;2023-05-06T16:18:27;3.97;;;2.12;;
77938;SDS011;67136;47.546;21.630;2023-05-06T16:21:37;2.67;;;2.00;;
77938;SDS011;67136;47.546;21.630;2023-05-06T16:24:55;4.00;;;2.00;;
77938;SDS011;67136;47.546;21.630;2023-05-06T16:28:23;3.70;;;2.00;;
77938;SDS011;67136;47.546;21.630;2023-05-06T16:31:28;4.60;;;2.22;;
77938;SDS011;67136;47.546;21.630;2023-05-06T16:34:38;3.28;;;2.12;;
77938;SDS011;67136;47.546;21.630;2023-05-06T16:37:55;3.70;;;2.10;;
77938;SDS011;67136;47.546;21.630;2023-05-06T16:40:59;3.95;;;2.00;;
77938;SDS011;67136;47.546;21.630;2023-05-06T16:44:07;7.47;;;2.67;;
77938;SDS011;67136;47.546;21.630;2023-05-06T16:47:10;6.60;;;2.40;;
77938;SDS011;67136;47.546;21.630;2023-05-06T16:50:16;3.25;;;2.33;;
77938;SDS011;67136;47.546;21.630;2023-05-06T16:53:28;3.33;;;2.30;;
77938;SDS011;67136;47.546;21.630;2023-05-06T16:56:40;6.10;;;2.30;;
77938;SDS011;67136;47.546;21.630;2023-05-06T16:59:56;3.30;;;2.30;;
77938;SDS011;67136;47.546;21.630;2023-05-06T17:03:08;7.18;;;2.40;;
77938;SDS011;67136;47.546;21.630;2023-05-06T17:06:15;3.40;;;2.10;;
77938;SDS011;67136;47.546;21.630;2023-05-06T17:12:49;5.18;;;2.50;;
77938;SDS011;67136;47.546;21.630;2023-05-06T17:16:02;4.77;;;2.30;;
77938;SDS011;67136;47.546;21.630;2023-05-06T17:19:09;3.80;;;2.35;;
77938;SDS011;67136;47.546;21.630;2023-05-06T17:22:14;5.10;;;2.20;;
77938;SDS011;67136;47.546;21.630;2023-05-06T17:25:22;8.07;;;2.60;;
77938;SDS011;67136;47.546;21.630;2023-05-06T17:28:30;3.87;;;2.40;;
77938;SDS011;67136;47.546;21.630;2023-05-06T17:31:38;3.03;;;2.37;;
77938;SDS011;67136;47.546;21.630;2023-05-06T17:34:43;7.78;;;2.50;;
77938;SDS011;67136;47.546;21.630;2023-05-06T17:37:57;5.32;;;2.75;;
77938;SDS011;67136;47.546;21.630;2023-05-06T17:41:03;4.32;;;2.50;;
77938;SDS011;67136;47.546;21.630;2023-05-06T17:44:10;13.18;;;2.90;;
77938;SDS011;67136;47.546;21.630;2023-05-06T17:47:21;11.40;;;2.50;;
77938;SDS011;67136;47.546;21.630;2023-05-06T17:50:32;4.05;;;2.65;;
77938;SDS011;67136;47.546;21.630;2023-05-06T17:53:39;4.53;;;2.53;;
77938;SDS011;67136;47.546;21.630;2023-05-06T17:56:51;5.18;;;2.80;;
77938;SDS011;67136;47.546;21.630;2023-05-06T18:00:00;3.90;;;2.40;;
77938;SDS011;67136;47.546;21.630;2023-05-06T18:03:16;5.73;;;3.00;;
77938;SDS011;67136;47.546;21.630;2023-05-06T18:06:25;5.95;;;3.85;;
77938;SDS011;67136;47.546;21.630;2023-05-06T18:09:30;13.13;;;3.40;;
77938;SDS011;67136;47.546;21.630;2023-05-06T18:12:40;8.25;;;3.45;;
77938;SDS011;67136;47.546;21.630;2023-05-06T18:15:49;6.68;;;3.55;;
77938;SDS011;67136;47.546;21.630;2023-05-06T18:18:57;4.97;;;3.30;;
77938;SDS011;67136;47.546;21.630;2023-05-06T18:22:29;5.50;;;2.70;;
77938;SDS011;67136;47.546;21.630;2023-05-06T18:25:37;7.20;;;3.50;;
77938;SDS011;67136;47.546;21.630;2023-05-06T18:28:53;4.30;;;3.30;;
77938;SDS011;67136;47.546;21.630;2023-05-06T18:31:58;10.43;;;3.90;;
77938;SDS011;67136;47.546;21.630;2023-05-06T18:35:05;6.83;;;3.37;;
77938;SDS011;67136;47.546;21.630;2023-05-06T18:38:17;4.43;;;3.62;;
77938;SDS011;67136;47.546;21.630;2023-05-06T18:41:53;6.65;;;3.40;;
77938;SDS011;67136;47.546;21.630;2023-05-06T18:45:02;4.87;;;3.28;;
77938;SDS011;67136;47.546;21.630;2023-05-06T18:48:19;6.10;;;3.62;;
77938;SDS011;67136;47.546;21.630;2023-05-06T18:51:35;4.20;;;3.27;;
77938;SDS011;67136;47.546;21.630;2023-05-06T18:54:37;6.18;;;3.12;;
77938;SDS011;67136;47.546;21.630;2023-05-06T18:57:46;5.55;;;3.42;;
77938;SDS011;67136;47.546;21.630;2023-05-06T19:01:06;7.03;;;3.37;;
77938;SDS011;67136;47.546;21.630;2023-05-06T19:04:15;7.47;;;3.22;;
77938;SDS011;67136;47.546;21.630;2023-05-06T19:07:32;4.83;;;3.17;;
77938;SDS011;67136;47.546;21.630;2023-05-06T19:10:48;6.85;;;3.80;;
77938;SDS011;67136;47.546;21.630;2023-05-06T19:13:54;7.43;;;3.78;;
77938;SDS011;67136;47.546;21.630;2023-05-06T19:17:12;5.82;;;3.90;;
77938;SDS011;67136;47.546;21.630;2023-05-06T19:20:20;5.45;;;4.10;;
77938;SDS011;67136;47.546;21.630;2023-05-06T19:23:28;8.83;;;4.70;;
77938;SDS011;67136;47.546;21.630;2023-05-06T19:26:41;5.78;;;4.50;;
77938;SDS011;67136;47.546;21.630;2023-05-06T19:29:48;6.53;;;4.62;;